Time;durP1;ratioP1;P1;durP2;ratioP2;P2;SDS_P1;SDS_P2;PMS_P1;PMS_P2;Temp;Humidity;BMP_temperature;BMP_pressure;BME280_temperature;BME280_humidity;BME280_pressure;Samples;Min_cycle;Max_cycle;Signal;HPM_P1;HPM_P2
2022/09/30 00:01:39;;;;;;;;;27.00;23.00;;;;;13.76;60.49;100399.81;5111272;27;45301;-71
2022/09/30 00:04:06;;;;;;;;;24.50;23.00;;;;;13.69;60.80;100402.41;5109388;27;45258;-69
2022/09/30 00:06:34;;;;;;;;;25.50;21.00;;;;;13.72;60.73;100403.34;5112409;27;45371;-68
2022/09/30 00:09:01;;;;;;;;;29.25;22.50;;;;;13.71;60.88;100400.63;5112742;27;45079;-68
2022/09/30 00:11:29;;;;;;;;;32.50;26.00;;;;;13.56;61.07;100391.59;5112018;27;46008;-67
2022/09/30 00:13:57;;;;;;;;;23.00;20.00;;;;;13.61;61.22;100394.28;5111934;27;44921;-70
2022/09/30 00:16:25;;;;;;;;;27.00;22.75;;;;;13.62;60.80;100399.69;5107539;27;46365;-69
2022/09/30 00:18:52;;;;;;;;;25.25;21.25;;;;;13.63;60.67;100406.84;5108907;27;45207;-68
2022/09/30 00:21:18;;;;;;;;;24.00;19.00;;;;;13.62;61.00;100404.16;5110386;27;44923;-68
2022/09/30 00:23:43;;;;;;;;;19.75;19.75;;;;;13.60;60.56;100400.56;5107522;27;48875;-69
2022/09/30 00:26:14;;;;;;;;;24.75;21.25;;;;;13.61;61.05;100407.72;5110986;27;45706;-71
2022/09/30 00:28:41;;;;;;;;;22.25;19.75;;;;;13.60;60.85;100400.56;5111422;27;45090;-68
2022/09/30 00:31:11;;;;;;;;;29.00;24.00;;;;;13.59;60.52;100402.34;5112472;27;45158;-69
2022/09/30 00:33:36;;;;;;;;;24.25;19.50;;;;;13.64;60.62;100405.97;5111899;27;45058;-69
2022/09/30 00:36:03;;;;;;;;;20.00;18.50;;;;;13.57;59.76;100392.50;5104375;27;45171;-69
2022/09/30 00:38:28;;;;;;;;;19.75;16.75;;;;;13.64;60.54;100405.97;5108617;27;45033;-69
2022/09/30 00:40:55;;;;;;;;;18.00;16.75;;;;;13.56;60.11;100393.34;5110758;27;51888;-69
2022/09/30 00:43:42;;;;;;;;;18.75;16.50;;;;;13.65;60.01;100398.81;5110791;27;45319;-69
2022/09/30 00:46:37;;;;;;;;;19.50;13.50;;;;;13.66;59.53;100403.31;5111170;27;44996;-69
2022/09/30 00:49:18;;;;;;;;;19.25;17.00;;;;;13.65;59.15;100401.50;5107442;27;45261;-69
2022/09/30 00:51:55;;;;;;;;;18.25;15.00;;;;;13.70;59.78;100406.91;5108243;27;45204;-69
2022/09/30 00:54:26;;;;;;;;;15.75;14.75;;;;;13.60;59.44;100387.16;5109287;27;45144;-69
2022/09/30 00:56:56;;;;;;;;;21.25;15.25;;;;;13.62;59.51;100393.41;5111876;27;45221;-69
2022/09/30 00:59:49;;;;;;;;;18.00;16.50;;;;;13.77;59.75;100411.44;5113014;27;45184;-69
2022/09/30 01:02:15;;;;;;;;;22.50;20.50;;;;;13.75;59.13;100405.16;5108862;27;45055;-69
2022/09/30 01:04:42;;;;;;;;;19.75;14.75;;;;;13.78;59.58;100414.13;5112217;27;45106;-68
2022/09/30 01:07:09;;;;;;;;;20.75;15.00;;;;;13.58;59.34;100373.72;5111355;27;45565;-69
2022/09/30 01:09:37;;;;;;;;;25.00;19.25;;;;;13.77;60.13;100414.13;5110062;27;44949;-69
2022/09/30 01:12:08;;;;;;;;;19.75;17.25;;;;;13.69;59.71;100410.47;5109160;27;45128;-69
2022/09/30 01:14:34;;;;;;;;;32.75;20.00;;;;;13.59;59.67;100396.97;5108179;27;45379;-69
2022/09/30 01:17:19;;;;;;;;;24.75;18.75;;;;;13.65;59.89;100420.28;5105569;27;45367;-69
2022/09/30 01:20:13;;;;;;;;;23.25;17.50;;;;;13.57;60.31;100422.00;5110188;27;44978;-68
2022/09/30 01:22:47;;;;;;;;;16.00;15.75;;;;;13.51;60.59;100419.25;5108588;27;45418;-69
2022/09/30 01:25:37;;;;;;;;;20.00;17.25;;;;;13.49;60.19;100418.34;5109024;27;45009;-69
2022/09/30 01:28:35;;;;;;;;;20.50;17.50;;;;;13.49;60.97;100416.56;5109902;27;45629;-68
2022/09/30 01:31:10;;;;;;;;;22.75;18.00;;;;;13.49;60.96;100413.88;5104363;27;45388;-69
2022/09/30 01:33:43;;;;;;;;;25.00;20.75;;;;;13.48;60.90;100412.09;5111342;27;45169;-68
2022/09/30 01:36:11;;;;;;;;;18.75;16.00;;;;;13.45;60.43;100412.06;5110225;27;45383;-69
2022/09/30 01:38:55;;;;;;;;;21.00;18.50;;;;;13.44;60.50;100412.94;5105565;27;45411;-70
2022/09/30 01:42:00;;;;;;;;;27.00;21.50;;;;;13.45;61.06;100409.38;5108711;27;45103;-69
2022/09/30 01:44:37;;;;;;;;;16.25;16.25;;;;;13.47;61.29;100412.09;5094711;27;45424;-70
2022/09/30 01:47:14;;;;;;;;;17.25;16.50;;;;;13.49;61.28;100407.63;5110004;27;45848;-67
2022/09/30 01:49:49;;;;;;;;;17.25;14.75;;;;;13.48;61.02;100409.41;5106954;27;49397;-70
2022/09/30 01:52:22;;;;;;;;;13.25;13.00;;;;;13.55;60.42;100429.16;5103782;27;45278;-69
2022/09/30 01:55:10;;;;;;;;;19.00;16.50;;;;;13.47;60.38;100412.97;5108562;27;45526;-68
2022/09/30 01:57:55;;;;;;;;;32.00;28.00;;;;;13.55;61.10;100421.09;5107782;27;45339;-68
2022/09/30 02:00:21;;;;;;;;;24.50;22.50;;;;;13.58;60.86;100423.81;5106082;27;45607;-68
2022/09/30 02:02:55;;;;;;;;;20.50;18.00;;;;;13.52;60.84;100421.97;5104350;27;45192;-69
2022/09/30 02:05:41;;;;;;;;;22.25;19.00;;;;;13.60;60.12;100422.03;5102557;27;45227;-70
2022/09/30 02:08:15;;;;;;;;;19.75;19.50;;;;;13.40;60.99;100387.88;5104261;27;45173;-69
2022/09/30 02:10:47;;;;;;;;;17.25;17.00;;;;;13.36;60.30;100377.97;5108296;27;45162;-69
2022/09/30 02:13:31;;;;;;;;;18.25;18.25;;;;;13.57;60.54;100413.97;5113901;27;45147;-68
2022/09/30 02:16:11;;;;;;;;;13.50;11.50;;;;;13.44;60.49;100411.16;5112561;27;45058;-68
2022/09/30 02:18:42;;;;;;;;;17.50;15.25;;;;;13.53;60.49;100421.09;5107186;27;45121;-67
2022/09/30 02:21:12;;;;;;;;;19.00;18.25;;;;;13.53;60.50;100417.47;5109946;27;45863;-68
2022/09/30 02:23:43;;;;;;;;;16.00;16.00;;;;;13.44;61.14;100402.22;5113447;27;47060;-68
2022/09/30 02:26:16;;;;;;;;;12.00;11.00;;;;;13.53;60.15;100417.47;5113947;27;45290;-69
2022/09/30 02:28:48;;;;;;;;;16.75;15.25;;;;;13.50;60.42;100415.69;5101195;27;45427;-69
2022/09/30 02:31:17;;;;;;;;;19.25;16.75;;;;;13.52;60.64;100411.22;5096335;27;46427;-68
2022/09/30 02:33:49;;;;;;;;;17.75;14.75;;;;;13.53;60.49;100412.13;5100056;27;45628;-69
2022/09/30 02:36:30;;;;;;;;;14.25;13.00;;;;;13.51;60.59;100405.84;5098810;27;45621;-69
2022/09/30 02:39:12;;;;;;;;;18.50;16.50;;;;;13.47;59.95;100401.34;5112479;27;45026;-70
2022/09/30 02:41:46;;;;;;;;;21.75;17.75;;;;;13.53;59.92;100417.47;5098997;27;45574;-69
2022/09/30 02:44:12;;;;;;;;;12.50;12.00;;;;;13.54;59.98;100408.56;5097389;27;46784;-69
2022/09/30 02:46:40;;;;;;;;;16.00;15.50;;;;;13.54;60.58;100416.63;5100222;27;46929;-69
2022/09/30 02:49:27;;;;;;;;;17.50;16.25;;;;;13.55;59.95;100416.63;5097412;27;45600;-69
2022/09/30 02:52:14;;;;;;;;;15.50;15.00;;;;;13.57;60.10;100425.59;5102672;27;46186;-69
2022/09/30 02:55:02;;;;;;;;;16.50;16.25;;;;;13.55;60.27;100424.69;5109333;27;45081;-68
2022/09/30 02:57:28;;;;;;;;;15.00;13.25;;;;;13.54;60.19;100428.25;5107684;27;45454;-69
2022/09/30 02:59:53;;;;;;;;;19.75;16.50;;;;;13.38;60.39;100402.13;5108828;27;45145;-69
2022/09/30 03:02:20;;;;;;;;;16.25;15.50;;;;;13.50;60.53;100434.47;5104957;27;46302;-68
2022/09/30 03:04:48;;;;;;;;;16.50;16.50;;;;;13.51;61.08;100435.38;5098380;27;45373;-68
2022/09/30 03:07:13;;;;;;;;;15.50;14.25;;;;;13.43;61.17;100420.09;5094081;27;45678;-70
2022/09/30 03:09:39;;;;;;;;;15.25;13.75;;;;;13.40;60.24;100416.50;5095415;27;45356;-69
2022/09/30 03:12:14;;;;;;;;;18.75;15.75;;;;;13.54;61.10;100435.41;5095208;27;45524;-69
2022/09/30 03:15:02;;;;;;;;;15.25;13.50;;;;;13.54;61.28;100443.44;5096230;27;45608;-69
2022/09/30 03:17:46;;;;;;;;;19.50;15.50;;;;;13.51;61.05;100441.63;5094791;27;45414;-68
2022/09/30 03:20:11;;;;;;;;;15.25;15.25;;;;;13.50;60.93;100455.94;5084723;27;45574;-68
2022/09/30 03:23:09;;;;;;;;;28.25;25.00;;;;;13.50;61.30;100452.38;5093931;27;48457;-69
2022/09/30 03:25:50;;;;;;;;;15.00;14.75;;;;;13.45;61.43;100457.69;5090056;27;45492;-69
2022/09/30 03:28:18;;;;;;;;;21.00;16.75;;;;;13.44;61.43;100466.63;5095603;27;45715;-67
2022/09/30 03:31:01;;;;;;;;;28.75;19.75;;;;;13.42;60.86;100469.28;5093695;27;45685;-70
2022/09/30 03:33:32;;;;;;;;;19.50;15.25;;;;;13.41;61.33;100478.25;5092600;27;46014;-68
2022/09/30 03:36:09;;;;;;;;;18.25;15.75;;;;;13.28;61.75;100461.06;5094390;27;45589;-69
2022/09/30 03:38:39;;;;;;;;;16.00;15.00;;;;;13.43;61.30;100480.94;5093787;27;45384;-69
2022/09/30 03:41:14;;;;;;;;;14.50;13.00;;;;;13.42;60.81;100489.84;5095102;27;45400;-68
2022/09/30 03:43:48;;;;;;;;;20.25;16.50;;;;;13.35;61.74;100486.22;5092549;27;46408;-69
2022/09/30 03:46:42;;;;;;;;;14.25;13.00;;;;;13.33;61.57;100501.41;5093687;27;45510;-70
2022/09/30 03:49:13;;;;;;;;;17.00;16.75;;;;;13.32;62.21;100504.03;5078486;27;45631;-70
2022/09/30 03:51:40;;;;;;;;;17.25;14.00;;;;;13.33;61.48;100524.63;5088413;28;45099;-69
2022/09/30 03:54:09;;;;;;;;;21.00;15.25;;;;;13.24;61.64;100498.56;5079909;28;45721;-69
2022/09/30 03:56:36;;;;;;;;;17.75;14.50;;;;;13.30;61.33;100516.50;5073489;27;45561;-68
2022/09/30 03:59:01;;;;;;;;;15.00;11.00;;;;;13.25;61.82;100517.38;5075022;28;45316;-68
2022/09/30 04:01:27;;;;;;;;;15.00;14.25;;;;;13.08;60.93;100495.72;5072951;28;45615;-69
2022/09/30 04:03:53;;;;;;;;;12.00;12.00;;;;;13.10;62.16;100517.19;5074675;28;46092;-67
2022/09/30 04:06:21;;;;;;;;;16.75;13.00;;;;;13.15;61.29;100528.88;5072987;28;45933;-69
2022/09/30 04:08:46;;;;;;;;;12.00;12.00;;;;;13.12;61.97;100542.25;5073853;28;45466;-70
2022/09/30 04:11:11;;;;;;;;;13.50;13.00;;;;;13.04;61.09;100534.09;5075088;28;45882;-68
2022/09/30 04:13:37;;;;;;;;;16.50;12.50;;;;;12.91;61.94;100519.63;5089631;28;52659;-68
2022/09/30 04:16:04;;;;;;;;;19.00;14.25;;;;;13.02;61.58;100557.31;5070591;28;45591;-70
2022/09/30 04:18:30;;;;;;;;;14.75;13.25;;;;;12.99;61.87;100561.75;5084949;28;45325;-69
2022/09/30 04:20:56;;;;;;;;;11.00;11.00;;;;;12.76;61.70;100543.56;5085932;28;45535;-68
2022/09/30 04:23:21;;;;;;;;;19.50;15.25;;;;;12.69;62.94;100539.88;5090774;28;44982;-68
2022/09/30 04:25:54;;;;;;;;;13.75;13.75;;;;;12.80;62.52;100569.53;5053783;28;44971;-66
2022/09/30 04:28:20;;;;;;;;;18.25;14.25;;;;;12.79;62.22;100583.81;5091126;28;45253;-69
2022/09/30 04:30:45;;;;;;;;;14.25;13.50;;;;;12.73;62.31;100573.88;5091164;28;45303;-69
2022/09/30 04:33:11;;;;;;;;;14.50;14.50;;;;;12.68;62.51;100586.31;5089514;28;45694;-68
2022/09/30 04:35:38;;;;;;;;;15.75;13.75;;;;;12.60;62.57;100582.63;5088618;27;45233;-67
2022/09/30 04:38:06;;;;;;;;;15.00;13.75;;;;;12.48;63.48;100574.41;5092610;28;45035;-68
2022/09/30 04:40:34;;;;;;;;;31.25;24.50;;;;;12.48;63.61;100582.44;5091339;28;45051;-69
2022/09/30 04:43:00;;;;;;;;;23.75;17.00;;;;;12.44;62.69;100589.53;5085755;28;45909;-69
2022/09/30 04:45:25;;;;;;;;;26.25;25.25;;;;;12.40;62.81;100593.03;5088728;28;45176;-69
2022/09/30 04:47:51;;;;;;;;;18.25;15.25;;;;;12.38;62.99;100596.56;5088012;27;45236;-69
2022/09/30 04:50:16;;;;;;;;;17.50;15.25;;;;;12.37;63.53;100597.44;5087934;28;45117;-69
2022/09/30 04:52:42;;;;;;;;;17.25;15.25;;;;;12.34;62.89;100588.47;5088656;28;46170;-69
2022/09/30 04:55:08;;;;;;;;;16.75;16.75;;;;;12.32;62.91;100595.59;5088292;28;45455;-68
2022/09/30 04:57:34;;;;;;;;;15.75;14.75;;;;;12.31;62.44;100595.56;5068975;28;45445;-67
2022/09/30 05:00:00;;;;;;;;;13.50;10.25;;;;;12.18;62.98;100581.06;5088067;28;45083;-71
2022/09/30 05:02:26;;;;;;;;;13.25;12.75;;;;;12.20;63.50;100597.16;5085327;28;45333;-69
2022/09/30 05:04:52;;;;;;;;;21.50;13.50;;;;;12.18;63.91;100599.81;5087573;28;45146;-68
2022/09/30 05:07:18;;;;;;;;;15.00;13.25;;;;;11.77;63.84;100524.97;5069653;28;45667;-70
2022/09/30 05:09:43;;;;;;;;;13.00;12.75;;;;;12.20;62.98;100598.06;5085896;28;50049;-70
2022/09/30 05:12:08;;;;;;;;;21.50;14.00;;;;;11.76;63.04;100525.84;5086085;28;65812;-69
2022/09/30 05:14:34;;;;;;;;;21.00;17.00;;;;;12.23;63.20;100607.94;5087418;28;45385;-67
2022/09/30 05:16:59;;;;;;;;;21.75;16.25;;;;;12.28;63.50;100609.81;5088621;28;45097;-69
2022/09/30 05:19:25;;;;;;;;;20.50;19.75;;;;;12.31;63.88;100609.84;5088264;28;45285;-71
2022/09/30 05:21:51;;;;;;;;;22.50;18.50;;;;;12.23;63.00;100605.25;5088630;28;45718;-68
2022/09/30 05:24:17;;;;;;;;;30.75;28.50;;;;;12.30;63.33;100608.03;5085319;28;45462;-68
2022/09/30 05:26:42;;;;;;;;;14.00;14.00;;;;;12.19;62.94;100581.97;5087501;28;45132;-69
2022/09/30 05:29:09;;;;;;;;;26.25;23.50;;;;;12.41;63.36;100615.38;5086696;28;45759;-68
2022/09/30 05:31:34;;;;;;;;;17.50;16.25;;;;;12.43;63.19;100609.16;5086797;28;45823;-72
2022/09/30 05:34:00;;;;;;;;;39.75;31.75;;;;;12.22;62.29;100577.53;5062817;28;45426;-68
2022/09/30 05:36:25;;;;;;;;;35.50;26.75;;;;;12.30;62.94;100613.41;5085379;28;45507;-69
2022/09/30 05:38:52;;;;;;;;;28.25;26.00;;;;;12.27;62.92;100618.69;5087019;28;44954;-67
2022/09/30 05:41:20;;;;;;;;;23.25;20.75;;;;;12.12;63.18;100618.44;5084831;28;46246;-69
2022/09/30 05:43:47;;;;;;;;;25.75;20.75;;;;;12.17;63.56;100630.13;5084757;28;45350;-68
2022/09/30 05:46:13;;;;;;;;;19.75;16.25;;;;;12.08;63.30;100619.28;5088011;28;45280;-68
2022/09/30 05:48:39;;;;;;;;;18.25;16.25;;;;;12.14;63.97;100635.44;5104370;27;44969;-70
2022/09/30 05:51:04;;;;;;;;;16.50;14.00;;;;;12.16;64.27;100636.38;5111810;27;45640;-69
2022/09/30 05:53:30;;;;;;;;;19.25;16.75;;;;;12.18;63.19;100634.63;5110328;27;46322;-68
2022/09/30 05:55:57;;;;;;;;;37.25;28.50;;;;;12.25;63.06;100630.28;5108823;27;45579;-70
2022/09/30 05:58:23;;;;;;;;;15.25;15.00;;;;;12.15;63.27;100613.16;5112525;27;45365;-70
2022/09/30 06:00:49;;;;;;;;;16.75;15.75;;;;;12.27;63.18;100636.56;5103567;27;45085;-71
2022/09/30 06:03:16;;;;;;;;;40.25;34.00;;;;;12.22;63.56;100636.47;5110179;27;45384;-70
2022/09/30 06:05:44;;;;;;;;;25.00;23.25;;;;;12.00;63.56;100619.13;5110806;27;45389;-69
2022/09/30 06:08:09;;;;;;;;;24.50;22.00;;;;;12.17;64.31;100648.88;5110568;27;45198;-72
2022/09/30 06:10:35;;;;;;;;;15.00;14.25;;;;;12.20;63.58;100653.41;5109609;27;45534;-71
2022/09/30 06:13:03;;;;;;;;;21.00;19.00;;;;;12.22;63.27;100660.56;5104273;27;45283;-70
2022/09/30 06:15:29;;;;;;;;;16.25;14.50;;;;;12.24;64.41;100660.63;5094886;27;45455;-71
2022/09/30 06:17:55;;;;;;;;;11.75;11.00;;;;;12.30;63.23;100661.63;5095419;27;45562;-70
2022/09/30 06:20:20;;;;;;;;;18.25;15.00;;;;;12.34;63.28;100665.25;5094789;27;45710;-70
2022/09/30 06:22:46;;;;;;;;;29.75;23.25;;;;;12.35;63.96;100670.63;5096737;27;45443;-70
2022/09/30 06:25:11;;;;;;;;;29.25;22.75;;;;;12.27;62.92;100652.63;5096468;27;45279;-71
2022/09/30 06:27:37;;;;;;;;;19.00;15.00;;;;;11.95;63.00;100597.63;5096798;27;45299;-70
2022/09/30 06:30:04;;;;;;;;;17.00;16.25;;;;;12.48;63.08;100692.31;5096359;27;46435;-70
2022/09/30 06:32:29;;;;;;;;;17.75;16.00;;;;;12.38;63.17;100656.41;5096450;27;45548;-69
2022/09/30 06:34:55;;;;;;;;;19.75;17.00;;;;;12.52;62.89;100683.44;5095160;27;45675;-68
2022/09/30 06:37:24;;;;;;;;;20.25;18.50;;;;;12.57;63.20;100676.38;5099096;27;45537;-70
2022/09/30 06:39:49;;;;;;;;;17.75;17.00;;;;;12.39;63.50;100633.19;5109523;27;46730;-69
2022/09/30 06:42:16;;;;;;;;;16.75;15.00;;;;;12.75;62.68;100681.13;5104307;27;45522;-71
2022/09/30 06:44:41;;;;;;;;;21.25;19.00;;;;;12.73;63.34;100677.53;5096046;27;45424;-70
2022/09/30 06:47:07;;;;;;;;;22.00;19.00;;;;;12.84;62.28;100686.66;5095809;27;45586;-70
2022/09/30 06:49:33;;;;;;;;;26.75;22.50;;;;;12.86;62.35;100695.63;5096142;27;46097;-69
2022/09/30 06:51:59;;;;;;;;;20.75;18.00;;;;;12.71;61.63;100665.91;5095454;27;45258;-69
2022/09/30 06:54:26;;;;;;;;;25.75;19.50;;;;;12.91;62.20;100699.28;5095915;27;45447;-70
2022/09/30 06:56:52;;;;;;;;;18.00;15.00;;;;;12.90;61.73;100701.94;5096021;27;45464;-70
2022/09/30 06:59:18;;;;;;;;;15.50;14.50;;;;;12.53;62.51;100634.34;5095609;27;47153;-69
2022/09/30 07:01:43;;;;;;;;;24.00;21.75;;;;;12.88;61.48;100687.59;5096234;27;45471;-71
2022/09/30 07:04:10;;;;;;;;;24.00;21.75;;;;;12.99;61.56;100701.19;5094837;27;45578;-72
2022/09/30 07:06:37;;;;;;;;;23.75;19.25;;;;;13.04;61.50;100699.50;5096334;27;45514;-69
2022/09/30 07:09:04;;;;;;;;;23.25;20.00;;;;;13.05;61.73;100701.28;5096170;27;46939;-71
2022/09/30 07:11:29;;;;;;;;;23.00;18.25;;;;;13.11;61.37;100696.00;5083355;27;45862;-71
2022/09/30 07:13:54;;;;;;;;;20.50;17.75;;;;;13.09;61.50;100679.00;5095823;27;45558;-71
2022/09/30 07:16:20;;;;;;;;;20.00;19.00;;;;;13.18;61.10;100687.19;5096476;27;45478;-71
2022/09/30 07:18:46;;;;;;;;;23.00;20.00;;;;;13.22;60.85;100686.34;5096046;27;46296;-71
2022/09/30 07:21:14;;;;;;;;;26.50;21.75;;;;;13.13;61.21;100686.19;5095275;27;45364;-70
2022/09/30 07:23:46;;;;;;;;;19.50;16.25;;;;;13.16;60.82;100693.41;5095522;27;45404;-71
2022/09/30 07:26:19;;;;;;;;;15.25;12.75;;;;;13.06;61.17;100673.59;5095463;27;45594;-72
2022/09/30 07:28:44;;;;;;;;;18.75;17.75;;;;;13.21;61.65;100697.94;5095429;27;46618;-70
2022/09/30 07:31:14;;;;;;;;;23.00;19.75;;;;;13.12;60.94;100670.09;5095340;27;45560;-71
2022/09/30 07:33:40;;;;;;;;;23.75;20.75;;;;;13.19;61.17;100672.00;5095619;27;45515;-71
2022/09/30 07:36:07;;;;;;;;;24.00;20.25;;;;;13.37;60.79;100700.91;5095820;27;45451;-71
2022/09/30 07:38:35;;;;;;;;;19.75;18.25;;;;;13.39;60.56;100708.06;5095215;27;46570;-71
2022/09/30 07:41:05;;;;;;;;;23.00;18.25;;;;;13.41;60.10;100702.72;5095148;27;45449;-72
2022/09/30 07:43:35;;;;;;;;;23.00;22.75;;;;;13.45;60.01;100709.97;5091162;27;45550;-70
2022/09/30 07:46:07;;;;;;;;;22.75;20.00;;;;;13.48;59.30;100709.09;5095383;27;45469;-71
2022/09/30 07:48:43;;;;;;;;;29.25;27.50;;;;;13.50;59.79;100712.72;5094689;27;46084;-71
2022/09/30 07:51:19;;;;;;;;;20.50;18.00;;;;;13.56;59.82;100702.97;5094764;27;45528;-71
2022/09/30 07:53:47;;;;;;;;;20.25;20.00;;;;;13.41;59.48;100676.81;5095396;27;45535;-71
2022/09/30 07:56:13;;;;;;;;;21.25;19.25;;;;;13.67;59.48;100705.78;5096113;27;45555;-71
2022/09/30 07:58:39;;;;;;;;;31.50;24.50;;;;;13.75;59.46;100711.25;5094206;27;48263;-71
2022/09/30 08:01:06;;;;;;;;;25.75;24.00;;;;;13.85;58.85;100710.47;5095690;27;45482;-71
2022/09/30 08:03:33;;;;;;;;;45.25;35.25;;;;;13.93;59.21;100708.78;5095706;27;45459;-71
2022/09/30 08:06:11;;;;;;;;;28.50;24.50;;;;;14.01;58.73;100707.09;5095380;27;45522;-72
2022/09/30 08:08:37;;;;;;;;;23.00;21.25;;;;;14.01;58.41;100701.72;5094312;27;45515;-71
2022/09/30 08:11:04;;;;;;;;;23.25;23.00;;;;;14.00;58.30;100688.28;5094289;27;45442;-71
2022/09/30 08:13:30;;;;;;;;;24.00;23.00;;;;;14.14;58.73;100708.13;5094865;27;45472;-71
2022/09/30 08:15:55;;;;;;;;;31.00;29.25;;;;;14.22;58.12;100708.19;5094691;27;45355;-70
2022/09/30 08:18:21;;;;;;;;;23.50;22.25;;;;;14.05;58.19;100667.72;5094281;27;45393;-71
2022/09/30 08:20:46;;;;;;;;;29.75;26.00;;;;;14.35;57.55;100709.25;5094563;27;45290;-71
2022/09/30 08:23:11;;;;;;;;;27.75;25.75;;;;;14.42;57.38;100704.81;5094475;27;45354;-71
2022/09/30 08:25:37;;;;;;;;;40.00;30.25;;;;;14.44;57.62;100695.91;5094359;27;54126;-71
2022/09/30 08:28:02;;;;;;;;;44.50;33.00;;;;;14.56;56.85;100714.81;5092784;27;48050;-70
2022/09/30 08:30:28;;;;;;;;;44.75;36.75;;;;;14.65;56.69;100718.50;5094239;27;45414;-71
2022/09/30 08:32:53;;;;;;;;;30.25;22.50;;;;;14.61;56.59;100697.88;5094598;27;46306;-72
2022/09/30 08:35:18;;;;;;;;;23.50;22.50;;;;;14.72;56.21;100718.59;5094659;27;45551;-71
2022/09/30 08:37:44;;;;;;;;;40.75;34.50;;;;;14.38;56.26;100645.66;5094411;27;46157;-71
2022/09/30 08:40:22;;;;;;;;;27.75;26.00;;;;;14.70;56.13;100685.41;5094131;27;45453;-71
2022/09/30 08:43:15;;;;;;;;;27.25;22.75;;;;;14.96;55.81;100716.09;5089875;27;45564;-71
2022/09/30 08:46:00;;;;;;;;;30.25;27.50;;;;;14.55;55.71;100643.13;5094419;27;45516;-69
2022/09/30 08:48:44;;;;;;;;;23.50;22.25;;;;;15.07;55.28;100720.66;5077050;27;46114;-71
2022/09/30 08:51:26;;;;;;;;;30.25;23.75;;;;;15.10;54.94;100719.81;5073202;28;45520;-70
2022/09/30 08:53:53;;;;;;;;;34.75;27.00;;;;;15.15;54.75;100718.03;5073442;28;45628;-70
2022/09/30 08:56:29;;;;;;;;;30.75;25.50;;;;;15.21;54.09;100704.63;5073723;28;45310;-70
2022/09/30 08:59:02;;;;;;;;;33.75;31.25;;;;;15.13;53.88;100682.16;5073798;28;47436;-69
2022/09/30 09:01:33;;;;;;;;;42.75;35.75;;;;;15.26;53.85;100697.50;5073449;28;45287;-71
2022/09/30 09:04:01;;;;;;;;;53.75;43.50;;;;;15.30;54.20;100698.41;5073375;28;45398;-72
2022/09/30 09:06:26;;;;;;;;;41.75;33.75;;;;;15.53;53.44;100703.91;5073768;28;45500;-71
2022/09/30 09:08:54;;;;;;;;;37.50;33.00;;;;;15.66;53.06;100712.97;5073460;28;47122;-71
2022/09/30 09:11:45;;;;;;;;;32.00;29.50;;;;;15.68;52.95;100702.22;5073514;28;45500;-72
2022/09/30 09:14:28;;;;;;;;;39.50;30.25;;;;;15.73;52.33;100704.00;5073418;28;45515;-72
2022/09/30 09:17:12;;;;;;;;;36.75;31.00;;;;;15.83;51.73;100711.28;5073674;28;45532;-72
2022/09/30 09:19:46;;;;;;;;;47.50;38.25;;;;;15.62;51.50;100652.81;5072808;28;45524;-71
2022/09/30 09:22:11;;;;;;;;;20.00;14.75;;;;;15.82;50.57;100685.25;5071677;28;45418;-71
2022/09/30 09:24:46;;;;;;;;;19.00;15.00;;;;;16.00;49.68;100708.66;5073211;28;45307;-72
2022/09/30 09:27:19;;;;;;;;;14.00;11.00;;;;;15.59;49.02;100644.72;5073524;28;45465;-70
2022/09/30 09:30:06;;;;;;;;;11.50;11.50;;;;;16.12;49.71;100720.34;5072691;28;45422;-71
2022/09/30 09:32:33;;;;;;;;;15.00;13.50;;;;;16.22;49.76;100719.50;5073060;28;45441;-70
2022/09/30 09:35:05;;;;;;;;;16.00;14.75;;;;;16.29;48.87;100721.31;5072714;28;45352;-71
2022/09/30 09:40:57;;;;;;;;;16.50;15.50;;;;;16.78;48.19;100725.88;5072549;28;45780;-71
2022/09/30 09:44:05;;;;;;;;;14.50;14.25;;;;;17.07;47.19;100728.59;5068154;28;45425;-72
2022/09/30 09:46:43;;;;;;;;;14.33;12.00;;;;;17.20;47.22;100732.19;5072426;28;45316;-71
2022/09/30 09:49:16;;;;;;;;;29.50;21.75;;;;;17.27;46.90;100731.31;5087972;27;45443;-70
2022/09/30 09:51:50;;;;;;;;;26.25;20.25;;;;;17.23;46.46;100718.69;5093895;27;46465;-72
2022/09/30 09:54:19;;;;;;;;;17.00;14.33;;;;;17.33;45.95;100730.38;5093461;27;45472;-70
2022/09/30 09:56:45;;;;;;;;;10.67;9.67;;;;;17.40;45.59;100728.56;5093488;27;45961;-71
2022/09/30 09:59:16;;;;;;;;;20.50;20.25;;;;;17.41;45.51;100727.66;5090289;27;45523;-71
2022/09/30 10:01:52;;;;;;;;;14.33;13.33;;;;;17.36;45.20;100713.28;5092804;27;46151;-71
2022/09/30 10:04:22;;;;;;;;;16.67;12.33;;;;;17.23;45.47;100683.59;5092845;27;45375;-71
2022/09/30 10:06:53;;;;;;;;;10.33;9.33;;;;;17.53;44.76;100726.75;5093009;27;45433;-72
2022/09/30 10:09:32;;;;;;;;;10.33;10.33;;;;;17.40;44.60;100713.25;5092983;27;45424;-71
2022/09/30 10:12:06;;;;;;;;;35.75;27.75;;;;;17.56;44.12;100724.03;5091180;27;48320;-71
2022/09/30 10:14:33;;;;;;;;;14.33;12.00;;;;;17.62;42.29;100729.41;5093029;27;45641;-70
2022/09/30 10:17:00;;;;;;;;;15.67;14.33;;;;;17.52;43.43;100717.72;5092663;27;45563;-72
2022/09/30 10:19:27;;;;;;;;;11.33;10.67;;;;;17.62;43.67;100729.41;5093372;27;45548;-72
2022/09/30 10:22:23;;;;;;;;;11.67;10.00;;;;;17.68;42.91;100722.16;5092853;27;45499;-71
2022/09/30 10:24:48;;;;;;;;;21.00;17.67;;;;;17.72;42.25;100720.38;5088069;27;45281;-70
2022/09/30 10:27:29;;;;;;;;;20.50;13.50;;;;;17.84;42.30;100723.03;5092621;27;45301;-69
2022/09/30 10:29:54;;;;;;;;;19.75;19.25;;;;;17.91;41.86;100723.94;5092731;27;45416;-72
2022/09/30 10:32:21;;;;;;;;;12.33;12.33;;;;;17.94;42.07;100725.75;5092713;27;46341;-71
2022/09/30 10:34:55;;;;;;;;;10.67;7.67;;;;;17.99;41.90;100722.09;5096143;27;45412;-71
2022/09/30 10:37:22;;;;;;;;;9.67;8.67;;;;;18.03;42.01;100728.38;5096696;27;45318;-71
2022/09/30 10:40:20;;;;;;;;;10.33;10.33;;;;;17.96;42.10;100721.22;5096187;27;45484;-71
2022/09/30 10:42:47;;;;;;;;;13.25;11.50;;;;;18.01;41.97;100727.50;5078414;27;45515;-70
2022/09/30 10:45:21;;;;;;;;;11.67;11.67;;;;;18.08;41.60;100722.97;5096107;27;45429;-72
2022/09/30 10:47:51;;;;;;;;;11.33;10.00;;;;;18.07;41.77;100734.69;5095904;27;45675;-72
2022/09/30 10:50:21;;;;;;;;;13.00;11.67;;;;;18.05;41.29;100719.38;5096144;27;45534;-72
2022/09/30 10:53:14;;;;;;;;;17.67;10.67;;;;;18.08;42.31;100720.25;5095724;27;45696;-71
2022/09/30 10:55:44;;;;;;;;;13.33;12.67;;;;;18.08;41.56;100715.72;5088405;27;45666;-71
2022/09/30 10:58:39;;;;;;;;;14.67;12.67;;;;;18.08;41.24;100702.22;5089573;27;45458;-70
2022/09/30 11:01:31;;;;;;;;;14.33;11.00;;;;;18.21;41.07;100713.88;5093544;27;45703;-71
2022/09/30 11:04:11;;;;;;;;;9.67;8.67;;;;;18.24;40.47;100709.34;5089826;27;46093;-71
2022/09/30 11:06:39;;;;;;;;;6.00;6.00;;;;;18.21;40.81;100712.09;5090902;27;45483;-70
2022/09/30 11:09:32;;;;;;;;;11.33;8.67;;;;;18.20;40.60;100706.69;5095980;27;45530;-69
2022/09/30 11:12:44;;;;;;;;;8.00;8.00;;;;;18.23;40.75;100712.03;5095165;27;45411;-72
2022/09/30 11:15:23;;;;;;;;;10.33;7.33;;;;;18.26;41.11;100714.72;5092538;27;46023;-71
2022/09/30 11:18:04;;;;;;;;;9.00;7.00;;;;;18.22;41.05;100710.28;5095506;27;45606;-71
2022/09/30 11:20:43;;;;;;;;;6.67;6.67;;;;;18.24;41.23;100709.34;5090632;27;45389;-71
2022/09/30 11:23:24;;;;;;;;;15.67;8.33;;;;;18.20;41.73;100696.75;5094167;27;45572;-71
2022/09/30 11:26:45;;;;;;;;;10.67;10.67;;;;;18.41;41.75;100724.56;5095239;27;45510;-72
2022/09/30 11:29:33;;;;;;;;;8.67;8.67;;;;;18.49;41.87;100713.69;5066877;27;45863;-71
2022/09/30 11:32:04;;;;;;;;;19.00;18.25;;;;;18.45;41.69;100704.72;5094997;27;45531;-71
2022/09/30 11:34:55;;;;;;;;;12.33;11.00;;;;;18.35;41.49;100681.34;5095560;27;45639;-71